sensor_id;sensor_type;location;lat;lon;timestamp;pressure;altitude;pressure_sealevel;temperature;humidity
27729;BME280;15126;42.186;24.340;2023-01-31T00:01:10;98892.25;;;2.64;73.08
27729;BME280;15126;42.186;24.340;2023-01-31T00:03:39;98882.03;;;2.57;73.75
27729;BME280;15126;42.186;24.340;2023-01-31T00:06:16;98891.50;;;2.67;72.36
27729;BME280;15126;42.186;24.340;2023-01-31T00:08:44;98882.06;;;2.64;72.71
27729;BME280;15126;42.186;24.340;2023-01-31T00:11:11;98895.84;;;2.68;72.96
27729;BME280;15126;42.186;24.340;2023-01-31T00:13:38;98895.03;;;2.67;72.56
27729;BME280;15126;42.186;24.340;2023-01-31T00:16:05;98892.31;;;2.71;73.49
27729;BME280;15126;42.186;24.340;2023-01-31T00:18:33;98886.00;;;2.70;73.00
27729;BME280;15126;42.186;24.340;2023-01-31T00:21:05;98884.44;;;2.73;72.27
27729;BME280;15126;42.186;24.340;2023-01-31T00:23:32;98876.19;;;2.73;72.64
27729;BME280;15126;42.186;24.340;2023-01-31T00:26:07;98877.75;;;2.77;72.19
27729;BME280;15126;42.186;24.340;2023-01-31T00:28:33;98887.59;;;2.78;72.44
27729;BME280;15126;42.186;24.340;2023-01-31T00:31:00;98880.53;;;2.81;72.94
27729;BME280;15126;42.186;24.340;2023-01-31T00:33:27;98891.94;;;2.83;73.03
27729;BME280;15126;42.186;24.340;2023-01-31T00:35:54;98897.44;;;2.83;72.65
27729;BME280;15126;42.186;24.340;2023-01-31T00:38:22;98893.13;;;2.85;72.18
27729;BME280;15126;42.186;24.340;2023-01-31T00:40:52;98898.25;;;2.87;72.84
27729;BME280;15126;42.186;24.340;2023-01-31T00:43:19;98886.44;;;2.79;73.18
27729;BME280;15126;42.186;24.340;2023-01-31T00:45:46;98878.53;;;2.71;72.10
27729;BME280;15126;42.186;24.340;2023-01-31T00:48:13;98888.34;;;2.72;72.61
27729;BME280;15126;42.186;24.340;2023-01-31T00:50:40;98905.31;;;2.81;72.30
27729;BME280;15126;42.186;24.340;2023-01-31T00:53:07;98887.13;;;2.59;72.30
27729;BME280;15126;42.186;24.340;2023-01-31T00:55:36;98896.63;;;2.68;72.34
27729;BME280;15126;42.186;24.340;2023-01-31T00:58:03;98895.03;;;2.67;72.59
27729;BME280;15126;42.186;24.340;2023-01-31T01:00:31;98902.94;;;2.69;72.80
27729;BME280;15126;42.186;24.340;2023-01-31T01:02:58;98901.31;;;2.57;72.30
27729;BME280;15126;42.186;24.340;2023-01-31T01:05:25;98899.75;;;2.67;73.33
27729;BME280;15126;42.186;24.340;2023-01-31T01:07:52;98889.16;;;2.69;72.27
27729;BME280;15126;42.186;24.340;2023-01-31T01:10:18;98880.09;;;2.58;73.17
27729;BME280;15126;42.186;24.340;2023-01-31T01:12:47;98887.97;;;2.63;72.88
27729;BME280;15126;42.186;24.340;2023-01-31T01:15:13;98886.38;;;2.65;72.64
27729;BME280;15126;42.186;24.340;2023-01-31T01:17:40;98885.59;;;2.72;73.41
27729;BME280;15126;42.186;24.340;2023-01-31T01:20:08;98888.78;;;2.77;72.35
27729;BME280;15126;42.186;24.340;2023-01-31T01:22:35;98891.16;;;2.86;71.92
27729;BME280;15126;42.186;24.340;2023-01-31T01:25:03;98873.84;;;2.85;72.21
27729;BME280;15126;42.186;24.340;2023-01-31T01:27:31;98880.97;;;2.93;71.62
27729;BME280;15126;42.186;24.340;2023-01-31T01:29:59;98873.09;;;2.99;71.95
27729;BME280;15126;42.186;24.340;2023-01-31T01:32:26;98880.97;;;3.08;71.22
27729;BME280;15126;42.186;24.340;2023-01-31T01:34:53;98867.22;;;3.11;71.07
27729;BME280;15126;42.186;24.340;2023-01-31T01:37:20;98858.97;;;3.15;70.30
27729;BME280;15126;42.186;24.340;2023-01-31T01:39:47;98855.81;;;3.23;70.46
27729;BME280;15126;42.186;24.340;2023-01-31T01:42:14;98853.84;;;3.27;70.66
27729;BME280;15126;42.186;24.340;2023-01-31T01:44:50;98838.47;;;3.26;70.04
27729;BME280;15126;42.186;24.340;2023-01-31T01:47:33;98825.53;;;3.23;70.24
27729;BME280;15126;42.186;24.340;2023-01-31T01:50:05;98833.78;;;3.30;70.48
27729;BME280;15126;42.186;24.340;2023-01-31T01:52:36;98829.06;;;3.27;70.00
27729;BME280;15126;42.186;24.340;2023-01-31T01:55:11;98826.31;;;3.31;70.65
27729;BME280;15126;42.186;24.340;2023-01-31T01:57:40;98829.06;;;3.27;70.61
27729;BME280;15126;42.186;24.340;2023-01-31T02:00:13;98829.44;;;3.22;70.42
27729;BME280;15126;42.186;24.340;2023-01-31T02:02:43;98825.91;;;3.25;69.80
27729;BME280;15126;42.186;24.340;2023-01-31T02:05:11;98802.69;;;3.19;70.19
27729;BME280;15126;42.186;24.340;2023-01-31T02:07:40;98815.69;;;3.22;70.84
27729;BME280;15126;42.186;24.340;2023-01-31T02:10:11;98814.09;;;3.25;70.41
27729;BME280;15126;42.186;24.340;2023-01-31T02:12:40;98813.69;;;3.30;69.89
27729;BME280;15126;42.186;24.340;2023-01-31T02:15:08;98792.06;;;3.21;71.03
27729;BME280;15126;42.186;24.340;2023-01-31T02:17:35;98796.00;;;3.31;70.87
27729;BME280;15126;42.186;24.340;2023-01-31T02:23:01;98769.66;;;3.12;70.57
27729;BME280;15126;42.186;24.340;2023-01-31T02:26:07;98803.88;;;3.29;71.12
27729;BME280;15126;42.186;24.340;2023-01-31T02:29:10;98800.31;;;3.28;71.33
27729;BME280;15126;42.186;24.340;2023-01-31T02:32:12;98792.84;;;3.29;71.71
27729;BME280;15126;42.186;24.340;2023-01-31T02:34:44;98807.78;;;3.24;72.87
27729;BME280;15126;42.186;24.340;2023-01-31T02:37:21;98815.66;;;3.29;70.94
27729;BME280;15126;42.186;24.340;2023-01-31T02:39:56;98799.94;;;3.23;72.09
27729;BME280;15126;42.186;24.340;2023-01-31T02:42:32;98793.66;;;3.26;72.36
27729;BME280;15126;42.186;24.340;2023-01-31T02:45:06;98785.78;;;3.17;71.72
27729;BME280;15126;42.186;24.340;2023-01-31T02:47:56;98807.00;;;3.34;71.48
27729;BME280;15126;42.186;24.340;2023-01-31T02:50:31;98815.25;;;3.34;71.55
27729;BME280;15126;42.186;24.340;2023-01-31T02:53:03;98813.72;;;3.37;71.25
27729;BME280;15126;42.186;24.340;2023-01-31T02:55:37;98814.88;;;3.36;71.43
27729;BME280;15126;42.186;24.340;2023-01-31T02:58:26;98812.50;;;3.34;71.74
27729;BME280;15126;42.186;24.340;2023-01-31T03:00:55;98810.13;;;3.40;71.10
27729;BME280;15126;42.186;24.340;2023-01-31T03:03:27;98809.34;;;3.43;70.73
27729;BME280;15126;42.186;24.340;2023-01-31T03:06:10;98814.47;;;3.51;70.63
27729;BME280;15126;42.186;24.340;2023-01-31T03:08:41;98810.53;;;3.52;70.94
27729;BME280;15126;42.186;24.340;2023-01-31T03:11:09;98820.38;;;3.57;70.07
27729;BME280;15126;42.186;24.340;2023-01-31T03:13:46;98826.66;;;3.65;69.95
27729;BME280;15126;42.186;24.340;2023-01-31T03:16:23;98825.06;;;3.71;69.93
27729;BME280;15126;42.186;24.340;2023-01-31T03:19:15;98795.97;;;3.55;70.84
27729;BME280;15126;42.186;24.340;2023-01-31T03:21:49;98816.41;;;3.69;70.07
27729;BME280;15126;42.186;24.340;2023-01-31T03:24:18;98810.50;;;3.70;69.41
27729;BME280;15126;42.186;24.340;2023-01-31T03:26:50;98819.94;;;3.73;70.10
27729;BME280;15126;42.186;24.340;2023-01-31T03:29:18;98823.09;;;3.75;68.90
27729;BME280;15126;42.186;24.340;2023-01-31T03:31:52;98822.69;;;3.76;68.55
27729;BME280;15126;42.186;24.340;2023-01-31T03:34:21;98825.88;;;3.71;67.25
27729;BME280;15126;42.186;24.340;2023-01-31T03:36:52;98823.09;;;3.71;67.20
27729;BME280;15126;42.186;24.340;2023-01-31T03:39:29;98817.59;;;3.53;65.33
27729;BME280;15126;42.186;24.340;2023-01-31T03:42:02;98822.34;;;3.53;61.67
27729;BME280;15126;42.186;24.340;2023-01-31T03:44:38;98829.84;;;3.56;61.20
27729;BME280;15126;42.186;24.340;2023-01-31T03:47:12;98826.66;;;3.54;59.54
27729;BME280;15126;42.186;24.340;2023-01-31T03:49:44;98840.84;;;3.52;59.31
27729;BME280;15126;42.186;24.340;2023-01-31T03:52:15;98828.25;;;3.55;59.25
27729;BME280;15126;42.186;24.340;2023-01-31T03:54:46;98846.34;;;3.59;56.70
27729;BME280;15126;42.186;24.340;2023-01-31T03:57:18;98845.97;;;3.61;58.18
27729;BME280;15126;42.186;24.340;2023-01-31T03:59:50;98847.13;;;3.60;58.02
27729;BME280;15126;42.186;24.340;2023-01-31T04:02:20;98842.00;;;3.66;56.26
27729;BME280;15126;42.186;24.340;2023-01-31T04:04:53;98852.63;;;3.67;58.12
27729;BME280;15126;42.186;24.340;2023-01-31T04:07:21;98858.94;;;3.75;55.87
27729;BME280;15126;42.186;24.340;2023-01-31T04:09:48;98862.09;;;3.73;56.41
27729;BME280;15126;42.186;24.340;2023-01-31T04:12:15;98866.03;;;3.72;58.46
27729;BME280;15126;42.186;24.340;2023-01-31T04:14:42;98868.38;;;3.84;55.53
27729;BME280;15126;42.186;24.340;2023-01-31T04:17:09;98861.31;;;3.80;55.49
27729;BME280;15126;42.186;24.340;2023-01-31T04:19:35;98860.91;;;3.81;57.10
27729;BME280;15126;42.186;24.340;2023-01-31T04:22:03;98873.50;;;3.86;55.91
27729;BME280;15126;42.186;24.340;2023-01-31T04:24:31;98876.66;;;3.81;57.13
27729;BME280;15126;42.186;24.340;2023-01-31T04:26:58;98885.72;;;3.78;55.17
27729;BME280;15126;42.186;24.340;2023-01-31T04:29:25;98887.28;;;3.79;57.35
27729;BME280;15126;42.186;24.340;2023-01-31T04:31:51;98895.94;;;3.81;55.49
27729;BME280;15126;42.186;24.340;2023-01-31T04:34:18;98897.56;;;3.75;56.22
27729;BME280;15126;42.186;24.340;2023-01-31T04:36:45;98903.84;;;3.79;56.88
27729;BME280;15126;42.186;24.340;2023-01-31T04:39:13;98894.78;;;3.82;56.65
27729;BME280;15126;42.186;24.340;2023-01-31T04:41:40;98889.25;;;3.78;57.52
27729;BME280;15126;42.186;24.340;2023-01-31T04:44:07;98890.44;;;3.74;58.18
27729;BME280;15126;42.186;24.340;2023-01-31T04:46:34;98892.00;;;3.78;57.43
27729;BME280;15126;42.186;24.340;2023-01-31T04:49:01;98888.47;;;3.81;57.38
27729;BME280;15126;42.186;24.340;2023-01-31T04:51:29;98895.94;;;3.81;58.17
27729;BME280;15126;42.186;24.340;2023-01-31T04:53:56;98905.81;;;3.78;58.67
27729;BME280;15126;42.186;24.340;2023-01-31T04:56:24;98896.38;;;3.69;58.42
27729;BME280;15126;42.186;24.340;2023-01-31T04:58:51;98909.75;;;3.74;59.44
27729;BME280;15126;42.186;24.340;2023-01-31T05:01:17;98912.13;;;3.68;60.67
27729;BME280;15126;42.186;24.340;2023-01-31T05:03:44;98910.91;;;3.73;59.75
27729;BME280;15126;42.186;24.340;2023-01-31T05:06:11;98915.28;;;3.67;61.08
27729;BME280;15126;42.186;24.340;2023-01-31T05:08:38;98919.59;;;3.60;60.88
27729;BME280;15126;42.186;24.340;2023-01-31T05:11:05;98925.53;;;3.66;60.34
27729;BME280;15126;42.186;24.340;2023-01-31T05:13:34;98913.28;;;3.71;61.20
27729;BME280;15126;42.186;24.340;2023-01-31T05:16:04;98931.00;;;3.70;60.62
27729;BME280;15126;42.186;24.340;2023-01-31T05:18:31;98932.22;;;3.58;61.50
27729;BME280;15126;42.186;24.340;2023-01-31T05:20:59;98944.00;;;3.73;60.86
27729;BME280;15126;42.186;24.340;2023-01-31T05:23:26;98899.91;;;3.37;60.90
27729;BME280;15126;42.186;24.340;2023-01-31T05:25:53;98932.19;;;3.61;61.92
27729;BME280;15126;42.186;24.340;2023-01-31T05:28:20;98939.69;;;3.57;60.68
27729;BME280;15126;42.186;24.340;2023-01-31T05:30:49;98945.59;;;3.67;61.54
27729;BME280;15126;42.186;24.340;2023-01-31T05:33:16;98952.69;;;3.60;61.68
27729;BME280;15126;42.186;24.340;2023-01-31T05:35:45;98951.88;;;3.67;61.37
27729;BME280;15126;42.186;24.340;2023-01-31T05:38:12;98955.06;;;3.69;61.46
27729;BME280;15126;42.186;24.340;2023-01-31T05:40:39;98960.97;;;3.71;61.55
27729;BME280;15126;42.186;24.340;2023-01-31T05:43:05;98966.47;;;3.71;60.72
27729;BME280;15126;42.186;24.340;2023-01-31T05:45:32;98973.56;;;3.76;61.48
27729;BME280;15126;42.186;24.340;2023-01-31T05:48:00;98969.22;;;3.68;61.93
27729;BME280;15126;42.186;24.340;2023-01-31T05:50:27;98977.09;;;3.73;61.07
27729;BME280;15126;42.186;24.340;2023-01-31T05:52:57;98969.63;;;3.73;61.63
27729;BME280;15126;42.186;24.340;2023-01-31T05:55:24;98985.78;;;3.71;61.50
27729;BME280;15126;42.186;24.340;2023-01-31T05:57:52;98979.47;;;3.71;62.40
27729;BME280;15126;42.186;24.340;2023-01-31T06:00:20;98983.41;;;3.70;62.12
27729;BME280;15126;42.186;24.340;2023-01-31T06:02:47;98989.72;;;3.74;62.23
27729;BME280;15126;42.186;24.340;2023-01-31T06:05:15;98998.00;;;3.77;61.43
27729;BME280;15126;42.186;24.340;2023-01-31T06:07:42;98988.13;;;3.73;62.21
27729;BME280;15126;42.186;24.340;2023-01-31T06:10:10;98974.34;;;3.73;62.09
27729;BME280;15126;42.186;24.340;2023-01-31T06:12:38;98994.44;;;3.77;62.51
27729;BME280;15126;42.186;24.340;2023-01-31T06:15:05;99004.31;;;3.78;62.28
27729;BME280;15126;42.186;24.340;2023-01-31T06:17:32;98996.03;;;3.85;62.39
27729;BME280;15126;42.186;24.340;2023-01-31T06:19:59;98994.47;;;3.91;62.69
27729;BME280;15126;42.186;24.340;2023-01-31T06:24:54;99002.34;;;3.99;62.96
27729;BME280;15126;42.186;24.340;2023-01-31T06:27:21;98999.19;;;4.01;62.85
27729;BME280;15126;42.186;24.340;2023-01-31T06:29:47;98999.16;;;4.11;62.31
27729;BME280;15126;42.186;24.340;2023-01-31T06:32:14;98995.22;;;4.16;62.66
27729;BME280;15126;42.186;24.340;2023-01-31T06:34:41;99003.91;;;4.18;62.71
27729;BME280;15126;42.186;24.340;2023-01-31T06:37:08;98992.47;;;4.16;62.49
27729;BME280;15126;42.186;24.340;2023-01-31T06:39:37;99002.31;;;4.20;62.28
27729;BME280;15126;42.186;24.340;2023-01-31T06:42:04;99005.47;;;4.26;61.85
27729;BME280;15126;42.186;24.340;2023-01-31T06:44:31;98998.38;;;4.25;61.88
27729;BME280;15126;42.186;24.340;2023-01-31T06:46:58;98974.75;;;4.10;62.01
27729;BME280;15126;42.186;24.340;2023-01-31T06:49:25;98996.41;;;4.26;63.08
27729;BME280;15126;42.186;24.340;2023-01-31T06:51:52;98998.78;;;4.20;62.71
27729;BME280;15126;42.186;24.340;2023-01-31T06:54:19;99003.09;;;4.28;62.24
27729;BME280;15126;42.186;24.340;2023-01-31T06:56:47;99011.75;;;4.30;62.17
27729;BME280;15126;42.186;24.340;2023-01-31T06:59:14;99000.72;;;4.37;62.66
27729;BME280;15126;42.186;24.340;2023-01-31T07:01:41;99002.28;;;4.42;61.72
27729;BME280;15126;42.186;24.340;2023-01-31T07:04:07;99008.19;;;4.47;61.17
27729;BME280;15126;42.186;24.340;2023-01-31T07:06:34;99006.63;;;4.50;61.55
27729;BME280;15126;42.186;24.340;2023-01-31T07:09:01;99012.53;;;4.48;61.33
27729;BME280;15126;42.186;24.340;2023-01-31T07:11:28;99019.22;;;4.54;60.94
27729;BME280;15126;42.186;24.340;2023-01-31T07:13:56;99020.41;;;4.60;62.03
27729;BME280;15126;42.186;24.340;2023-01-31T07:16:22;99023.94;;;4.61;62.17
27729;BME280;15126;42.186;24.340;2023-01-31T07:18:51;99025.53;;;4.58;60.53
27729;BME280;15126;42.186;24.340;2023-01-31T07:21:18;99027.09;;;4.63;61.45
27729;BME280;15126;42.186;24.340;2023-01-31T07:23:44;99023.53;;;4.66;61.65
27729;BME280;15126;42.186;24.340;2023-01-31T07:26:11;99032.63;;;4.70;60.31
27729;BME280;15126;42.186;24.340;2023-01-31T07:28:38;99033.75;;;4.76;60.21
27729;BME280;15126;42.186;24.340;2023-01-31T07:31:08;99027.88;;;4.67;60.58
27729;BME280;15126;42.186;24.340;2023-01-31T07:33:37;99030.22;;;4.72;60.05
27729;BME280;15126;42.186;24.340;2023-01-31T07:36:05;99026.28;;;4.80;60.00
27729;BME280;15126;42.186;24.340;2023-01-31T07:38:33;99033.34;;;4.81;60.23
27729;BME280;15126;42.186;24.340;2023-01-31T07:41:01;99029.41;;;4.86;59.94
27729;BME280;15126;42.186;24.340;2023-01-31T07:43:29;99024.69;;;4.86;58.79
27729;BME280;15126;42.186;24.340;2023-01-31T07:45:57;99021.09;;;4.93;59.21
27729;BME280;15126;42.186;24.340;2023-01-31T07:48:25;99029.00;;;4.94;58.75
27729;BME280;15126;42.186;24.340;2023-01-31T07:50:57;99027.34;;;5.07;58.80
27729;BME280;15126;42.186;24.340;2023-01-31T07:53:27;99026.56;;;5.07;59.39
27729;BME280;15126;42.186;24.340;2023-01-31T07:55:54;99022.97;;;5.17;58.48
27729;BME280;15126;42.186;24.340;2023-01-31T07:58:21;99027.34;;;5.11;59.73
27729;BME280;15126;42.186;24.340;2023-01-31T08:00:48;99030.81;;;5.32;59.37
27729;BME280;15126;42.186;24.340;2023-01-31T08:03:34;99025.66;;;5.38;60.28
27729;BME280;15126;42.186;24.340;2023-01-31T08:06:03;99017.72;;;5.40;59.05
27729;BME280;15126;42.186;24.340;2023-01-31T08:08:32;99031.88;;;5.49;58.27
27729;BME280;15126;42.186;24.340;2023-01-31T08:10:59;99024.31;;;5.60;58.46
27729;BME280;15126;42.186;24.340;2023-01-31T08:13:25;99037.25;;;5.74;57.48
27729;BME280;15126;42.186;24.340;2023-01-31T08:15:52;99026.97;;;5.81;58.11
27729;BME280;15126;42.186;24.340;2023-01-31T08:18:19;99029.75;;;5.78;58.82
27729;BME280;15126;42.186;24.340;2023-01-31T08:20:48;99030.50;;;5.89;58.46
27729;BME280;15126;42.186;24.340;2023-01-31T08:23:15;99033.63;;;5.94;57.11
27729;BME280;15126;42.186;24.340;2023-01-31T08:25:42;99027.63;;;6.03;57.04
27729;BME280;15126;42.186;24.340;2023-01-31T08:28:09;99031.88;;;6.15;58.19
27729;BME280;15126;42.186;24.340;2023-01-31T08:30:39;99005.16;;;5.94;58.50
27729;BME280;15126;42.186;24.340;2023-01-31T08:33:06;99040.88;;;6.26;57.64
27729;BME280;15126;42.186;24.340;2023-01-31T08:35:33;99038.53;;;6.21;56.76
27729;BME280;15126;42.186;24.340;2023-01-31T08:38:01;99045.63;;;6.25;56.45
27729;BME280;15126;42.186;24.340;2023-01-31T08:40:29;99033.13;;;6.07;56.60
27729;BME280;15126;42.186;24.340;2023-01-31T08:42:57;99036.97;;;6.20;57.16
27729;BME280;15126;42.186;24.340;2023-01-31T08:45:25;99040.81;;;6.33;57.33
27729;BME280;15126;42.186;24.340;2023-01-31T08:47:52;99040.75;;;6.40;56.08
27729;BME280;15126;42.186;24.340;2023-01-31T08:50:21;99041.06;;;6.49;56.29
27729;BME280;15126;42.186;24.340;2023-01-31T08:52:51;99043.09;;;6.41;57.44
27729;BME280;15126;42.186;24.340;2023-01-31T08:55:20;99036.91;;;6.30;56.08
27729;BME280;15126;42.186;24.340;2023-01-31T08:57:47;99047.91;;;6.34;54.85
27729;BME280;15126;42.186;24.340;2023-01-31T09:00:15;99043.16;;;6.34;55.52
27729;BME280;15126;42.186;24.340;2023-01-31T09:02:42;99023.81;;;6.31;55.59
27729;BME280;15126;42.186;24.340;2023-01-31T09:05:10;99033.59;;;6.46;54.83
27729;BME280;15126;42.186;24.340;2023-01-31T09:07:37;99029.47;;;6.61;56.29
27729;BME280;15126;42.186;24.340;2023-01-31T09:10:05;99046.59;;;6.90;53.48
27729;BME280;15126;42.186;24.340;2023-01-31T09:12:34;99034.84;;;7.12;56.33
27729;BME280;15126;42.186;24.340;2023-01-31T09:15:01;99036.13;;;7.38;52.43
27729;BME280;15126;42.186;24.340;2023-01-31T09:17:28;99024.31;;;7.61;50.39
27729;BME280;15126;42.186;24.340;2023-01-31T09:19:55;99034.22;;;7.89;49.97
27729;BME280;15126;42.186;24.340;2023-01-31T09:22:22;99036.97;;;8.15;50.14
27729;BME280;15126;42.186;24.340;2023-01-31T09:24:48;99021.03;;;8.19;49.84
27729;BME280;15126;42.186;24.340;2023-01-31T09:27:15;99027.69;;;8.25;49.13
27729;BME280;15126;42.186;24.340;2023-01-31T09:29:44;99016.63;;;8.22;48.90
27729;BME280;15126;42.186;24.340;2023-01-31T09:32:10;99015.59;;;8.12;48.80
27729;BME280;15126;42.186;24.340;2023-01-31T09:34:37;99014.47;;;7.83;49.30
27729;BME280;15126;42.186;24.340;2023-01-31T09:37:04;99010.84;;;7.86;49.34
27729;BME280;15126;42.186;24.340;2023-01-31T09:39:31;99004.97;;;7.80;50.57
27729;BME280;15126;42.186;24.340;2023-01-31T09:42:05;99013.69;;;7.83;50.54
27729;BME280;15126;42.186;24.340;2023-01-31T09:44:38;98996.47;;;7.68;49.32
27729;BME280;15126;42.186;24.340;2023-01-31T09:47:12;98988.03;;;7.48;51.53
27729;BME280;15126;42.186;24.340;2023-01-31T09:49:45;98998.53;;;7.34;51.12
27729;BME280;15126;42.186;24.340;2023-01-31T09:52:14;99002.53;;;7.29;53.19
27729;BME280;15126;42.186;24.340;2023-01-31T09:54:41;98981.25;;;7.23;53.99
27729;BME280;15126;42.186;24.340;2023-01-31T09:57:20;98982.56;;;7.41;53.07
27729;BME280;15126;42.186;24.340;2023-01-31T09:59:58;98965.94;;;7.41;52.31
27729;BME280;15126;42.186;24.340;2023-01-31T10:02:57;98974.66;;;7.40;50.84
27729;BME280;15126;42.186;24.340;2023-01-31T10:05:35;98976.97;;;7.45;52.13
27729;BME280;15126;42.186;24.340;2023-01-31T10:08:11;98964.16;;;7.54;51.18
27729;BME280;15126;42.186;24.340;2023-01-31T10:10:44;98968.56;;;7.52;50.29
27729;BME280;15126;42.186;24.340;2023-01-31T10:13:16;98970.09;;;7.53;49.81
27729;BME280;15126;42.186;24.340;2023-01-31T10:15:48;98966.41;;;7.63;51.39
27729;BME280;15126;42.186;24.340;2023-01-31T10:18:22;98968.34;;;7.66;50.11
27729;BME280;15126;42.186;24.340;2023-01-31T10:20:54;98970.13;;;7.79;50.05
27729;BME280;15126;42.186;24.340;2023-01-31T10:23:26;98949.91;;;7.79;49.59
27729;BME280;15126;42.186;24.340;2023-01-31T10:25:58;98958.19;;;7.83;50.77
27729;BME280;15126;42.186;24.340;2023-01-31T10:28:30;98949.69;;;7.93;49.51
27729;BME280;15126;42.186;24.340;2023-01-31T10:31:05;98950.69;;;8.03;50.56
27729;BME280;15126;42.186;24.340;2023-01-31T10:33:44;98956.44;;;7.92;50.08
27729;BME280;15126;42.186;24.340;2023-01-31T10:36:21;98941.56;;;7.79;51.29
27729;BME280;15126;42.186;24.340;2023-01-31T10:38:57;98937.75;;;7.69;51.22
27729;BME280;15126;42.186;24.340;2023-01-31T10:41:33;98937.59;;;7.53;51.68
27729;BME280;15126;42.186;24.340;2023-01-31T10:44:06;98946.16;;;7.66;51.13
27729;BME280;15126;42.186;24.340;2023-01-31T10:46:38;98941.31;;;7.70;51.34
27729;BME280;15126;42.186;24.340;2023-01-31T10:49:09;98936.44;;;7.77;51.63
27729;BME280;15126;42.186;24.340;2023-01-31T10:51:50;98937.22;;;7.78;51.76
27729;BME280;15126;42.186;24.340;2023-01-31T10:54:28;98948.44;;;7.71;50.43
27729;BME280;15126;42.186;24.340;2023-01-31T10:57:03;98933.41;;;7.68;50.66
27729;BME280;15126;42.186;24.340;2023-01-31T10:59:32;98934.66;;;7.64;50.53
27729;BME280;15126;42.186;24.340;2023-01-31T11:02:00;98937.69;;;7.73;50.61
27729;BME280;15126;42.186;24.340;2023-01-31T11:04:30;98930.97;;;7.74;51.43
27729;BME280;15126;42.186;24.340;2023-01-31T11:06:59;98938.13;;;7.71;51.89
27729;BME280;15126;42.186;24.340;2023-01-31T11:09:28;98934.56;;;7.71;51.59
27729;BME280;15126;42.186;24.340;2023-01-31T11:11:59;98921.66;;;7.61;54.95
27729;BME280;15126;42.186;24.340;2023-01-31T11:14:26;98922.84;;;7.60;52.79
27729;BME280;15126;42.186;24.340;2023-01-31T11:16:59;98923.22;;;7.62;51.79
27729;BME280;15126;42.186;24.340;2023-01-31T11:19:33;98940.84;;;7.75;52.73
27729;BME280;15126;42.186;24.340;2023-01-31T11:22:02;98921.09;;;7.69;51.16
27729;BME280;15126;42.186;24.340;2023-01-31T11:24:32;98944.44;;;7.72;49.97
27729;BME280;15126;42.186;24.340;2023-01-31T11:27:02;98935.22;;;7.78;52.06
27729;BME280;15126;42.186;24.340;2023-01-31T11:29:31;98926.25;;;7.71;50.19
27729;BME280;15126;42.186;24.340;2023-01-31T11:32:02;98915.97;;;7.68;51.28
27729;BME280;15126;42.186;24.340;2023-01-31T11:34:31;98936.25;;;7.65;50.59
27729;BME280;15126;42.186;24.340;2023-01-31T11:37:04;98921.38;;;7.52;50.69
27729;BME280;15126;42.186;24.340;2023-01-31T11:39:32;98944.94;;;7.67;49.53
27729;BME280;15126;42.186;24.340;2023-01-31T11:42:11;98936.91;;;7.72;50.64
27729;BME280;15126;42.186;24.340;2023-01-31T11:44:53;98937.03;;;7.65;51.29
27729;BME280;15126;42.186;24.340;2023-01-31T11:47:26;98926.81;;;7.59;51.92
27729;BME280;15126;42.186;24.340;2023-01-31T11:49:54;98925.97;;;7.62;51.61
27729;BME280;15126;42.186;24.340;2023-01-31T11:52:28;98927.22;;;7.61;51.33
27729;BME280;15126;42.186;24.340;2023-01-31T11:54:57;98920.44;;;7.62;51.75
27729;BME280;15126;42.186;24.340;2023-01-31T11:57:29;98920.72;;;7.44;51.27
27729;BME280;15126;42.186;24.340;2023-01-31T11:59:59;98919.13;;;7.43;49.91
27729;BME280;15126;42.186;24.340;2023-01-31T12:02:32;98927.72;;;7.52;52.21
27729;BME280;15126;42.186;24.340;2023-01-31T12:05:07;98899.13;;;7.29;50.96
27729;BME280;15126;42.186;24.340;2023-01-31T12:07:42;98922.34;;;7.42;51.33
27729;BME280;15126;42.186;24.340;2023-01-31T12:10:30;98934.47;;;7.51;52.20
27729;BME280;15126;42.186;24.340;2023-01-31T12:12:59;98935.75;;;7.47;51.84
27729;BME280;15126;42.186;24.340;2023-01-31T12:15:28;98943.91;;;7.57;51.76
27729;BME280;15126;42.186;24.340;2023-01-31T12:17:57;98941.53;;;7.56;51.56
27729;BME280;15126;42.186;24.340;2023-01-31T12:20:39;98933.78;;;7.44;53.83
27729;BME280;15126;42.186;24.340;2023-01-31T12:23:17;98944.63;;;7.35;53.18
27729;BME280;15126;42.186;24.340;2023-01-31T12:25:55;98943.06;;;7.34;52.78
27729;BME280;15126;42.186;24.340;2023-01-31T12:28:34;98947.03;;;7.33;53.06
27729;BME280;15126;42.186;24.340;2023-01-31T12:31:19;98955.88;;;7.24;52.35
27729;BME280;15126;42.186;24.340;2023-01-31T12:33:58;98948.69;;;7.27;54.17
27729;BME280;15126;42.186;24.340;2023-01-31T12:36:38;98941.22;;;7.24;52.59
27729;BME280;15126;42.186;24.340;2023-01-31T12:43:03;98957.44;;;7.25;53.28
27729;BME280;15126;42.186;24.340;2023-01-31T12:45:51;98953.44;;;7.26;53.98
27729;BME280;15126;42.186;24.340;2023-01-31T12:48:42;98953.41;;;7.30;53.48
27729;BME280;15126;42.186;24.340;2023-01-31T12:51:23;98966.28;;;7.43;53.35
27729;BME280;15126;42.186;24.340;2023-01-31T12:54:01;98966.66;;;7.45;52.16
27729;BME280;15126;42.186;24.340;2023-01-31T12:56:44;98958.81;;;7.40;53.37
27729;BME280;15126;42.186;24.340;2023-01-31T12:59:27;98972.59;;;7.47;52.59
27729;BME280;15126;42.186;24.340;2023-01-31T13:01:59;98968.91;;;7.54;52.06
27729;BME280;15126;42.186;24.340;2023-01-31T13:04:40;98968.25;;;7.46;52.72
27729;BME280;15126;42.186;24.340;2023-01-31T13:07:13;98978.19;;;7.44;53.59
27729;BME280;15126;42.186;24.340;2023-01-31T13:09:45;98974.78;;;7.33;54.06
27729;BME280;15126;42.186;24.340;2023-01-31T13:12:15;98967.78;;;7.21;53.76
27729;BME280;15126;42.186;24.340;2023-01-31T13:14:49;98983.25;;;7.22;55.12
27729;BME280;15126;42.186;24.340;2023-01-31T13:17:21;98976.06;;;7.25;53.41
27729;BME280;15126;42.186;24.340;2023-01-31T13:19:52;98972.06;;;7.26;54.16
27729;BME280;15126;42.186;24.340;2023-01-31T13:22:24;98990.28;;;7.27;55.29
27729;BME280;15126;42.186;24.340;2023-01-31T13:25:02;98982.88;;;7.20;55.24
27729;BME280;15126;42.186;24.340;2023-01-31T13:27:33;98983.31;;;7.15;54.92